createdAt,value
2022-11-25T00:03:46.504Z,100307.97
2022-11-25T00:08:51.847Z,100299.66
2022-11-25T00:13:54.683Z,100298.31
2022-11-25T00:18:57.974Z,100297.34
2022-11-25T00:24:03.307Z,100297.81
2022-11-25T00:29:06.848Z,100288.69
2022-11-25T00:34:13.554Z,100291.50
2022-11-25T00:39:18.543Z,100287.34
2022-11-25T00:44:36.213Z,100285.06
2022-11-25T00:49:39.870Z,100289.31
2022-11-25T00:54:44.750Z,100298.50
2022-11-25T00:59:47.731Z,100299.56
2022-11-25T01:04:50.607Z,100300.69
2022-11-25T01:09:55.242Z,100295.06
2022-11-25T01:15:00.567Z,100295.31
2022-11-25T01:20:04.661Z,100299.13
2022-11-25T01:25:09.649Z,100297.28
2022-11-25T01:30:14.536Z,100295.94
2022-11-25T01:35:17.461Z,100304.00
2022-11-25T01:40:21.602Z,100304.75
2022-11-25T01:45:33.650Z,100292.03
2022-11-25T01:50:36.516Z,100295.22
2022-11-25T01:55:42.458Z,100289.13
2022-11-25T02:00:51.111Z,100299.03
2022-11-25T02:05:56.391Z,100297.56
2022-11-25T02:11:00.605Z,100295.97
2022-11-25T02:16:03.402Z,100300.50
2022-11-25T02:21:07.345Z,100307.97
2022-11-25T02:26:13.010Z,100307.97
2022-11-25T02:31:20.578Z,100307.72
2022-11-25T02:36:23.699Z,100306.13
2022-11-25T02:41:29.445Z,100314.06
2022-11-25T02:46:35.799Z,100309.41
2022-11-25T02:51:39.275Z,100303.31
2022-11-25T02:56:43.448Z,100299.66
2022-11-25T03:01:47.215Z,100300.03
2022-11-25T03:06:50.235Z,100304.66
2022-11-25T03:12:11.934Z,100304.53
2022-11-25T03:17:15.015Z,100308.19
2022-11-25T03:22:17.856Z,100311.16
2022-11-25T03:27:22.133Z,100307.13
2022-11-25T03:32:25.125Z,100307.75
2022-11-25T03:37:28.000Z,100312.13
2022-11-25T03:42:33.449Z,100314.22
2022-11-25T03:47:37.022Z,100311.63
2022-11-25T03:52:40.252Z,100314.56
2022-11-25T03:57:46.400Z,100312.63
2022-11-25T04:02:49.579Z,100316.41
2022-11-25T04:07:57.698Z,100312.47
2022-11-25T04:13:03.187Z,100310.78
2022-11-25T04:18:11.999Z,100307.09
2022-11-25T04:23:15.375Z,100312.88
2022-11-25T04:28:30.719Z,100311.63
2022-11-25T04:33:34.037Z,100310.28
2022-11-25T04:38:36.988Z,100323.69
2022-11-25T04:43:42.489Z,100318.06
2022-11-25T04:48:48.645Z,100312.25
2022-11-25T04:53:52.261Z,100316.75
2022-11-25T04:59:13.909Z,100321.28
2022-11-25T05:04:20.705Z,100310.66
2022-11-25T05:09:24.480Z,100320.16
2022-11-25T05:14:39.761Z,100319.56
2022-11-25T05:19:42.634Z,100321.03
2022-11-25T05:24:46.093Z,100315.66
2022-11-25T05:29:55.729Z,100307.97
2022-11-25T05:34:59.724Z,100312.25
2022-11-25T05:40:02.639Z,100318.59
2022-11-25T05:45:11.238Z,100310.88
2022-11-25T05:50:15.708Z,100321.63
2022-11-25T05:55:37.429Z,100321.63
2022-11-25T06:00:47.143Z,100330.44
2022-11-25T06:05:49.995Z,100331.38
2022-11-25T06:10:53.203Z,100325.06
2022-11-25T06:15:57.627Z,100327.09
2022-11-25T06:21:00.796Z,100322.47
2022-11-25T06:26:06.190Z,100331.38
2022-11-25T06:31:11.531Z,100326.75
2022-11-25T06:36:22.723Z,100346.63
2022-11-25T06:41:25.533Z,100345.56
2022-11-25T06:46:29.921Z,100356.38
2022-11-25T06:51:32.773Z,100350.91
2022-11-25T06:56:35.532Z,100352.63
2022-11-25T07:01:39.746Z,100361.75
2022-11-25T07:06:42.598Z,100357.28
2022-11-25T07:11:45.412Z,100358.97
2022-11-25T07:16:49.600Z,100361.53
2022-11-25T07:21:52.796Z,100365.81
2022-11-25T07:26:55.826Z,100369.81
2022-11-25T07:31:59.941Z,100371.41
2022-11-25T07:37:02.814Z,100371.91
2022-11-25T07:42:05.940Z,100371.91
2022-11-25T07:47:10.230Z,100375.56
2022-11-25T07:52:13.003Z,100376.53
2022-11-25T07:57:15.913Z,100371.03
2022-11-25T08:02:20.238Z,100374.38
2022-11-25T08:07:23.178Z,100380.81
2022-11-25T08:12:26.300Z,100386.06
2022-11-25T08:17:30.487Z,100389.72
2022-11-25T08:22:33.294Z,100392.38
2022-11-25T08:27:36.301Z,100394.72
2022-11-25T08:32:40.666Z,100405.00
2022-11-25T08:37:43.476Z,100408.56
2022-11-25T08:42:46.276Z,100394.34
2022-11-25T08:47:50.407Z,100388.97
2022-11-25T08:52:53.290Z,100389.19
2022-11-25T08:57:56.125Z,100398.50
2022-11-25T09:03:01.132Z,100393.09
2022-11-25T09:08:07.182Z,100396.06
2022-11-25T09:13:11.633Z,100401.09
2022-11-25T09:18:18.882Z,100398.50
2022-11-25T09:23:23.262Z,100407.69
2022-11-25T09:28:26.633Z,100404.19
2022-11-25T09:33:30.789Z,100403.00
2022-11-25T09:38:34.903Z,100411.56
2022-11-25T09:44:02.278Z,100410.03
2022-11-25T09:49:10.261Z,100401.53
2022-11-25T09:54:14.590Z,100401.06
2022-11-25T09:59:19.391Z,100404.50
2022-11-25T10:04:25.801Z,100403.78
2022-11-25T10:09:29.798Z,100396.34
2022-11-25T10:14:33.994Z,100392.47
2022-11-25T10:19:41.952Z,100388.22
2022-11-25T10:24:44.978Z,100389.81
2022-11-25T10:29:49.097Z,100391.28
2022-11-25T10:34:54.521Z,100394.59
2022-11-25T10:39:57.587Z,100397.88
2022-11-25T10:45:00.398Z,100393.75
2022-11-25T10:50:21.658Z,100393.63
2022-11-25T10:55:25.946Z,100386.44
2022-11-25T11:00:31.926Z,100393.50
2022-11-25T11:05:36.232Z,100398.66
2022-11-25T11:10:39.468Z,100402.06
2022-11-25T11:15:47.037Z,100386.44
2022-11-25T11:20:52.272Z,100385.97
2022-11-25T11:26:00.000Z,100379.75
2022-11-25T11:31:03.663Z,100368.28
2022-11-25T11:36:23.555Z,100376.94
2022-11-25T11:41:32.827Z,100370.97
2022-11-25T11:46:41.938Z,100367.56
2022-11-25T11:51:48.427Z,100363.94
2022-11-25T11:56:55.524Z,100360.44
2022-11-25T12:02:20.669Z,100355.91
2022-11-25T12:07:27.878Z,100357.16
2022-11-25T12:12:33.769Z,100356.06
2022-11-25T12:17:39.108Z,100352.97
2022-11-25T12:22:45.653Z,100356.16
2022-11-25T12:27:50.200Z,100349.22
2022-11-25T12:32:57.782Z,100348.25
2022-11-25T12:38:05.069Z,100345.69
2022-11-25T12:43:18.400Z,100356.66
2022-11-25T12:48:21.733Z,100356.91
2022-11-25T12:53:29.714Z,100359.47
2022-11-25T12:58:43.704Z,100370.13
2022-11-25T13:04:04.802Z,100366.78
2022-11-25T13:09:15.253Z,100365.50
2022-11-25T13:14:23.200Z,100369.75
2022-11-25T13:19:27.366Z,100369.88
2022-11-25T13:24:33.277Z,100374.91
2022-11-25T13:30:01.331Z,100376.47
2022-11-25T13:35:40.941Z,100373.53
2022-11-25T13:40:45.983Z,100376.22
2022-11-25T13:45:48.784Z,100380.75
2022-11-25T13:51:10.683Z,100388.44
2022-11-25T13:56:17.000Z,100400.91
2022-11-25T14:01:29.405Z,100404.31
2022-11-25T14:06:57.428Z,100408.59
2022-11-25T14:12:24.962Z,100419.47
2022-11-25T14:17:49.091Z,100421.41
2022-11-25T14:23:22.230Z,100428.63
2022-11-25T14:28:31.955Z,100433.28
2022-11-25T14:33:36.247Z,100437.06
2022-11-25T14:38:41.784Z,100449.78
2022-11-25T14:43:48.009Z,100456.97
2022-11-25T14:48:54.524Z,100464.28
2022-11-25T14:53:57.711Z,100471.88
2022-11-25T14:59:02.049Z,100486.41
2022-11-25T15:04:08.064Z,100483.22
2022-11-25T15:09:19.958Z,100486.53
2022-11-25T15:14:27.354Z,100483.59
2022-11-25T15:19:33.896Z,100491.16
2022-11-25T15:24:43.506Z,100494.34
2022-11-25T15:29:48.307Z,100501.31
2022-11-25T15:34:51.176Z,100502.28
2022-11-25T15:40:27.227Z,100506.81
2022-11-25T15:45:35.947Z,100504.84
2022-11-25T15:50:38.748Z,100511.81
2022-11-25T15:55:41.491Z,100507.41
2022-11-25T16:01:00.366Z,100509.75
2022-11-25T16:06:03.597Z,100523.41
2022-11-25T16:11:15.371Z,100524.66
2022-11-25T16:16:21.084Z,100534.28
2022-11-25T16:21:25.254Z,100537.84
2022-11-25T16:26:29.472Z,100534.41
2022-11-25T16:31:33.679Z,100538.59
2022-11-25T16:36:36.461Z,100539.19
2022-11-25T16:41:39.246Z,100546.41
2022-11-25T16:46:43.401Z,100543.09
2022-11-25T16:51:46.369Z,100545.34
2022-11-25T16:56:50.350Z,100545.81
2022-11-25T17:01:54.794Z,100554.94
2022-11-25T17:07:31.042Z,100553.34
2022-11-25T17:12:23.798Z,100554.94
2022-11-25T17:17:28.077Z,100554.56
2022-11-25T17:22:36.075Z,100560.88
2022-11-25T17:27:40.791Z,100567.00
2022-11-25T17:32:44.986Z,100573.25
2022-11-25T17:37:48.043Z,100580.66
2022-11-25T17:42:50.964Z,100588.84
2022-11-25T17:47:55.262Z,100593.13
2022-11-25T17:52:58.108Z,100607.53
2022-11-25T17:58:00.941Z,100608.97
2022-11-25T18:03:10.197Z,100613.38
2022-11-25T18:08:12.990Z,100613.84
2022-11-25T18:13:15.851Z,100623.50
2022-11-25T18:18:22.129Z,100639.56
2022-11-25T18:23:24.907Z,100648.13
2022-11-25T18:28:27.854Z,100648.56
2022-11-25T18:33:32.569Z,100650.31
2022-11-25T18:38:35.442Z,100658.72
2022-11-25T18:43:38.243Z,100655.78
2022-11-25T18:48:42.794Z,100662.88
2022-11-25T18:53:45.607Z,100671.72
2022-11-25T18:58:50.675Z,100677.88
2022-11-25T19:03:55.358Z,100686.97
2022-11-25T19:08:58.128Z,100686.88
2022-11-25T19:14:03.057Z,100689.88
2022-11-25T19:19:07.371Z,100697.59
2022-11-25T19:24:13.309Z,100701.63
2022-11-25T19:29:19.515Z,100720.47
2022-11-25T19:34:27.176Z,100729.31
2022-11-25T19:39:37.535Z,100733.16
2022-11-25T19:44:40.361Z,100740.53
2022-11-25T19:49:44.540Z,100746.28
2022-11-25T19:54:47.283Z,100762.66
2022-11-25T19:59:50.181Z,100782.38
2022-11-25T20:04:55.456Z,100776.75
2022-11-25T20:09:58.244Z,100795.09
2022-11-25T20:15:01.250Z,100794.84
2022-11-25T20:20:08.669Z,100798.31
2022-11-25T20:25:12.924Z,100807.81
2022-11-25T20:30:17.760Z,100811.63
2022-11-25T20:35:21.976Z,100815.38
2022-11-25T20:40:26.119Z,100821.03
2022-11-25T20:45:29.054Z,100822.72
2022-11-25T20:50:33.250Z,100830.31
2022-11-25T20:55:36.848Z,100837.28
2022-11-25T21:00:40.108Z,100847.31
2022-11-25T21:05:44.352Z,100849.03
2022-11-25T21:10:47.601Z,100861.13
2022-11-25T21:15:53.080Z,100871.16
2022-11-25T21:20:57.549Z,100876.38
2022-11-25T21:26:03.595Z,100879.06
2022-11-25T21:31:11.257Z,100881.50
2022-11-25T21:36:17.549Z,100890.94
2022-11-25T21:41:20.412Z,100907.41
2022-11-25T21:46:24.909Z,100905.06
2022-11-25T21:51:29.196Z,100908.81
2022-11-25T21:56:33.933Z,100909.81
2022-11-25T22:01:36.763Z,100925.09
2022-11-25T22:06:40.870Z,100932.41
2022-11-25T22:11:44.977Z,100938.66
2022-11-25T22:16:47.916Z,100939.75
2022-11-25T22:21:52.155Z,100943.28
2022-11-25T22:26:58.091Z,100945.25
2022-11-25T22:32:01.174Z,100955.25
2022-11-25T22:37:06.601Z,100960.53
2022-11-25T22:42:11.583Z,100966.31
2022-11-25T22:47:17.173Z,100983.44
2022-11-25T22:52:23.037Z,100990.63
2022-11-25T22:57:25.905Z,100987.84
2022-11-25T23:02:30.997Z,100992.47
2022-11-25T23:07:35.320Z,100998.81
2022-11-25T23:12:38.176Z,101001.50
2022-11-25T23:17:40.985Z,101007.94
2022-11-25T23:22:45.206Z,101017.13
2022-11-25T23:27:48.062Z,101014.00
2022-11-25T23:32:52.397Z,101027.44
2022-11-25T23:37:57.068Z,101021.44
2022-11-25T23:42:59.860Z,101023.78
2022-11-25T23:48:02.737Z,101028.31
2022-11-25T23:53:07.781Z,101033.81
2022-11-25T23:58:14.709Z,101035.88
